createdAt,value
2023-06-30T00:00:34.441Z,77.51
2023-06-30T00:01:34.468Z,77.80
2023-06-30T00:02:34.455Z,77.80
2023-06-30T00:03:34.498Z,77.90
2023-06-30T00:04:34.419Z,77.80
2023-06-30T00:05:34.206Z,77.61
2023-06-30T00:06:37.146Z,77.51
2023-06-30T00:07:34.240Z,77.71
2023-06-30T00:08:34.053Z,77.51
2023-06-30T00:09:34.031Z,77.71
2023-06-30T00:10:33.954Z,77.61
2023-06-30T00:11:33.908Z,77.71
2023-06-30T00:12:33.863Z,77.80
2023-06-30T00:13:33.817Z,77.51
2023-06-30T00:14:33.768Z,77.61
2023-06-30T00:15:33.723Z,77.42
2023-06-30T00:16:33.856Z,77.45
2023-06-30T00:17:33.726Z,77.42
2023-06-30T00:18:33.580Z,77.51
2023-06-30T00:19:33.519Z,77.42
2023-06-30T00:20:33.479Z,77.42
2023-06-30T00:21:33.429Z,77.61
2023-06-30T00:22:33.394Z,77.71
2023-06-30T00:23:33.331Z,77.51
2023-06-30T00:24:33.307Z,77.61
2023-06-30T00:25:33.237Z,77.61
2023-06-30T00:26:33.190Z,77.42
2023-06-30T00:27:33.154Z,77.61
2023-06-30T00:28:33.090Z,77.61
2023-06-30T00:29:33.034Z,77.51
2023-06-30T00:30:32.993Z,77.22
2023-06-30T00:31:32.991Z,77.22
2023-06-30T00:32:33.063Z,77.51
2023-06-30T00:33:32.845Z,77.42
2023-06-30T00:34:32.794Z,77.51
2023-06-30T00:35:32.772Z,77.71
2023-06-30T00:36:32.727Z,77.22
2023-06-30T00:37:32.652Z,77.42
2023-06-30T00:38:32.724Z,77.51
2023-06-30T00:39:32.551Z,77.51
2023-06-30T00:40:32.509Z,77.42
2023-06-30T00:41:32.469Z,77.42
2023-06-30T00:42:32.416Z,77.22
2023-06-30T00:43:32.365Z,77.42
2023-06-30T00:44:32.324Z,77.61
2023-06-30T00:45:32.266Z,77.42
2023-06-30T00:46:32.244Z,77.61
2023-06-30T00:47:32.190Z,77.80
2023-06-30T00:48:32.123Z,77.61
2023-06-30T00:49:32.078Z,77.71
2023-06-30T00:50:32.030Z,77.61
2023-06-30T00:51:31.973Z,77.42
2023-06-30T00:52:31.926Z,77.42
2023-06-30T00:53:31.883Z,77.61
2023-06-30T00:54:31.836Z,77.71
2023-06-30T00:55:31.781Z,77.61
2023-06-30T00:56:31.739Z,77.61
2023-06-30T00:57:31.688Z,77.42
2023-06-30T00:58:31.637Z,77.42
2023-06-30T00:59:31.597Z,77.61
2023-06-30T01:00:31.553Z,77.42
2023-06-30T01:01:31.538Z,77.42
2023-06-30T01:02:31.536Z,77.61
2023-06-30T01:03:31.571Z,77.61
2023-06-30T01:04:31.461Z,77.80
2023-06-30T01:05:31.304Z,77.61
2023-06-30T01:06:31.256Z,77.80
2023-06-30T01:07:31.257Z,77.61
2023-06-30T01:08:31.158Z,77.61
2023-06-30T01:09:31.116Z,77.80
2023-06-30T01:10:31.070Z,77.51
2023-06-30T01:11:31.013Z,77.22
2023-06-30T01:12:30.972Z,77.51
2023-06-30T01:13:30.921Z,77.71
2023-06-30T01:14:30.875Z,77.71
2023-06-30T01:15:30.818Z,77.32
2023-06-30T01:16:30.796Z,77.32
2023-06-30T01:17:30.742Z,77.32
2023-06-30T01:18:30.673Z,77.32
2023-06-30T01:19:30.630Z,78.00
2023-06-30T01:20:30.596Z,77.80
2023-06-30T01:21:30.535Z,77.32
2023-06-30T01:22:30.486Z,77.32
2023-06-30T01:23:30.437Z,77.32
2023-06-30T01:24:30.386Z,77.22
2023-06-30T01:25:30.364Z,77.13
2023-06-30T01:26:30.341Z,77.51
2023-06-30T01:27:30.243Z,77.71
2023-06-30T01:28:30.199Z,77.61
2023-06-30T01:29:30.153Z,77.13
2023-06-30T01:30:30.132Z,77.22
2023-06-30T01:31:30.059Z,77.22
2023-06-30T01:32:30.150Z,77.32
2023-06-30T01:33:29.952Z,77.80
2023-06-30T01:34:29.908Z,78.09
2023-06-30T01:35:29.857Z,78.38
2023-06-30T01:36:29.814Z,78.29
2023-06-30T01:37:29.766Z,78.19
2023-06-30T01:38:29.711Z,78.29
2023-06-30T01:39:29.668Z,78.38
2023-06-30T01:40:29.618Z,78.09
2023-06-30T01:41:29.575Z,78.29
2023-06-30T01:42:29.529Z,78.48
2023-06-30T01:43:29.470Z,78.38
2023-06-30T01:44:29.421Z,78.09
2023-06-30T01:45:29.421Z,78.29
2023-06-30T01:46:29.354Z,78.00
2023-06-30T01:47:29.313Z,78.29
2023-06-30T01:48:29.232Z,78.19
2023-06-30T01:49:29.183Z,78.29
2023-06-30T01:50:29.134Z,78.38
2023-06-30T01:51:29.087Z,78.38
2023-06-30T01:52:29.046Z,78.09
2023-06-30T01:53:28.987Z,78.58
2023-06-30T01:54:28.939Z,78.58
2023-06-30T01:55:28.931Z,78.58
2023-06-30T01:56:28.840Z,78.67
2023-06-30T01:57:28.794Z,78.29
2023-06-30T01:58:28.766Z,78.19
2023-06-30T01:59:28.707Z,78.77
2023-06-30T02:00:28.656Z,78.29
2023-06-30T02:01:28.656Z,78.29
2023-06-30T02:02:28.599Z,78.19
2023-06-30T02:03:28.602Z,78.48
2023-06-30T02:04:28.463Z,78.38
2023-06-30T02:05:28.407Z,78.38
2023-06-30T02:06:28.365Z,78.38
2023-06-30T02:07:28.364Z,78.48
2023-06-30T02:08:28.269Z,78.48
2023-06-30T02:09:42.639Z,78.09
2023-06-30T02:10:28.328Z,78.00
2023-06-30T02:11:28.680Z,78.09
2023-06-30T02:12:28.079Z,78.29
2023-06-30T02:13:28.021Z,78.96
2023-06-30T02:14:27.983Z,78.96
2023-06-30T02:15:27.934Z,78.87
2023-06-30T02:16:27.908Z,78.09
2023-06-30T02:17:27.903Z,78.87
2023-06-30T02:18:27.782Z,78.87
2023-06-30T02:19:27.733Z,78.87
2023-06-30T02:20:27.695Z,78.96
2023-06-30T02:21:27.633Z,78.67
2023-06-30T02:22:27.610Z,78.48
2023-06-30T02:23:27.538Z,78.67
2023-06-30T02:24:27.486Z,78.67
2023-06-30T02:25:28.533Z,78.67
2023-06-30T02:26:27.391Z,78.67
2023-06-30T02:27:27.927Z,78.67
2023-06-30T02:28:27.305Z,78.67
2023-06-30T02:29:27.256Z,78.48
2023-06-30T02:30:27.209Z,78.67
2023-06-30T02:31:27.173Z,78.48
2023-06-30T02:32:27.247Z,78.67
2023-06-30T02:33:27.054Z,78.67
2023-06-30T02:34:27.007Z,78.67
2023-06-30T02:35:27.035Z,78.67
2023-06-30T02:36:26.915Z,78.58
2023-06-30T02:37:26.860Z,78.58
2023-06-30T02:38:26.828Z,78.67
2023-06-30T02:39:26.808Z,78.58
2023-06-30T02:40:26.796Z,78.67
2023-06-30T02:41:26.680Z,78.48
2023-06-30T02:42:26.621Z,78.67
2023-06-30T02:43:26.575Z,78.67
2023-06-30T02:44:26.525Z,78.48
2023-06-30T02:45:26.480Z,78.58
2023-06-30T02:46:26.534Z,78.19
2023-06-30T02:47:26.462Z,78.29
2023-06-30T02:48:26.331Z,78.58
2023-06-30T02:49:26.278Z,78.58
2023-06-30T02:50:26.229Z,78.58
2023-06-30T02:51:26.190Z,78.58
2023-06-30T02:52:26.149Z,78.19
2023-06-30T02:53:26.086Z,78.77
2023-06-30T02:54:26.038Z,78.29
2023-06-30T02:55:25.992Z,78.77
2023-06-30T02:56:25.941Z,78.38
2023-06-30T02:57:25.892Z,78.29
2023-06-30T02:58:25.862Z,78.58
2023-06-30T02:59:25.796Z,78.29
2023-06-30T03:00:25.743Z,78.38
2023-06-30T03:01:25.773Z,78.29
2023-06-30T03:02:26.006Z,78.67
2023-06-30T03:03:25.697Z,78.38
2023-06-30T03:04:25.548Z,78.77
2023-06-30T03:05:25.504Z,78.58
2023-06-30T03:06:25.460Z,78.77
2023-06-30T03:07:25.456Z,78.77
2023-06-30T03:08:25.360Z,78.77
2023-06-30T03:09:25.311Z,78.58
2023-06-30T03:10:25.258Z,78.58
2023-06-30T03:11:25.220Z,78.67
2023-06-30T03:12:25.168Z,78.58
2023-06-30T03:13:25.111Z,78.67
2023-06-30T03:14:25.060Z,78.67
2023-06-30T03:15:25.016Z,78.67
2023-06-30T03:16:24.979Z,78.44
2023-06-30T03:17:24.941Z,78.67
2023-06-30T03:18:24.877Z,78.67
2023-06-30T03:19:24.827Z,78.67
2023-06-30T03:20:24.788Z,78.77
2023-06-30T03:21:24.735Z,78.58
2023-06-30T03:22:24.676Z,78.29
2023-06-30T03:23:24.651Z,78.29
2023-06-30T03:24:24.581Z,78.44
2023-06-30T03:25:24.532Z,78.48
2023-06-30T03:26:24.508Z,78.38
2023-06-30T03:27:24.452Z,78.48
2023-06-30T03:28:24.386Z,78.58
2023-06-30T03:29:24.358Z,78.29
2023-06-30T03:30:24.300Z,78.48
2023-06-30T03:31:24.318Z,78.54
2023-06-30T03:32:24.217Z,79.12
2023-06-30T03:33:24.160Z,79.16
2023-06-30T03:34:24.111Z,79.02
2023-06-30T03:35:30.703Z,78.67
2023-06-30T03:36:24.008Z,78.73
2023-06-30T03:37:23.969Z,78.83
2023-06-30T03:38:23.903Z,78.87
2023-06-30T03:39:23.857Z,78.92
2023-06-30T03:40:23.806Z,78.83
2023-06-30T03:41:23.762Z,78.83
2023-06-30T03:42:23.703Z,78.92
2023-06-30T03:43:23.664Z,78.96
2023-06-30T03:44:23.606Z,78.87
2023-06-30T03:45:23.568Z,78.83
2023-06-30T03:46:23.531Z,79.02
2023-06-30T03:47:23.488Z,79.02
2023-06-30T03:48:23.414Z,79.41
2023-06-30T03:49:23.381Z,79.31
2023-06-30T03:50:23.322Z,79.22
2023-06-30T03:51:23.268Z,79.22
2023-06-30T03:52:23.220Z,79.02
2023-06-30T03:53:23.218Z,79.31
2023-06-30T03:54:23.123Z,79.22
2023-06-30T03:55:23.084Z,79.12
2023-06-30T03:56:23.035Z,79.12
2023-06-30T03:57:22.985Z,79.12
2023-06-30T03:58:22.936Z,78.73
2023-06-30T03:59:22.887Z,79.41
2023-06-30T04:00:22.839Z,78.73
2023-06-30T04:01:22.789Z,79.41
2023-06-30T04:02:22.816Z,78.83
2023-06-30T04:03:24.278Z,78.83
2023-06-30T04:04:22.743Z,78.92
2023-06-30T04:05:22.601Z,78.83
2023-06-30T04:06:22.552Z,78.83
2023-06-30T04:07:22.667Z,78.67
2023-06-30T04:08:22.566Z,78.64
2023-06-30T04:09:22.399Z,78.64
2023-06-30T04:10:22.352Z,78.64
2023-06-30T04:11:22.306Z,78.64
2023-06-30T04:12:22.273Z,78.54
2023-06-30T04:13:22.209Z,78.64
2023-06-30T04:14:22.158Z,78.64
2023-06-30T04:15:22.158Z,78.73
2023-06-30T04:16:22.127Z,78.83
2023-06-30T04:17:22.077Z,78.73
2023-06-30T04:18:22.044Z,78.73
2023-06-30T04:19:21.921Z,78.64
2023-06-30T04:20:21.868Z,78.44
2023-06-30T04:21:21.823Z,78.64
2023-06-30T04:22:21.797Z,78.73
2023-06-30T04:23:21.724Z,78.83
2023-06-30T04:24:21.673Z,78.73
2023-06-30T04:25:21.680Z,79.22
2023-06-30T04:26:21.582Z,78.54
2023-06-30T04:27:21.532Z,78.83
2023-06-30T04:28:21.489Z,79.22
2023-06-30T04:29:21.443Z,79.31
2023-06-30T04:30:21.407Z,79.41
2023-06-30T04:31:21.352Z,79.12
2023-06-30T04:32:21.290Z,79.31
2023-06-30T04:33:21.244Z,78.92
2023-06-30T04:34:21.187Z,79.12
2023-06-30T04:35:21.159Z,78.83
2023-06-30T04:36:21.093Z,78.92
2023-06-30T04:37:21.049Z,78.92
2023-06-30T04:38:22.763Z,79.12
2023-06-30T04:39:20.964Z,79.12
2023-06-30T04:40:20.902Z,79.22
2023-06-30T04:41:20.866Z,79.22
2023-06-30T04:42:20.807Z,79.22
2023-06-30T04:43:20.756Z,79.22
2023-06-30T04:44:20.717Z,79.22
2023-06-30T04:45:20.661Z,79.22
2023-06-30T04:46:20.629Z,79.70
2023-06-30T04:47:20.564Z,78.92
2023-06-30T04:48:20.529Z,79.12
2023-06-30T04:49:20.481Z,79.60
2023-06-30T04:50:20.418Z,79.02
2023-06-30T04:51:20.369Z,79.41
2023-06-30T04:52:20.323Z,79.41
2023-06-30T04:53:20.272Z,79.02
2023-06-30T04:54:20.231Z,79.60
2023-06-30T04:55:20.176Z,79.70
2023-06-30T04:56:20.344Z,79.60
2023-06-30T04:57:20.081Z,79.41
2023-06-30T04:58:41.020Z,79.60
2023-06-30T04:59:19.984Z,79.60
2023-06-30T05:00:19.929Z,79.60
2023-06-30T05:01:19.984Z,79.50
2023-06-30T05:02:19.886Z,79.50
2023-06-30T05:03:19.797Z,79.50
2023-06-30T05:04:19.735Z,79.60
2023-06-30T05:05:19.686Z,79.60
2023-06-30T05:06:19.644Z,79.31
2023-06-30T05:07:19.607Z,79.50
2023-06-30T05:08:19.545Z,79.50
2023-06-30T05:09:19.496Z,79.31
2023-06-30T05:10:19.466Z,79.31
2023-06-30T05:11:19.401Z,79.70
2023-06-30T05:12:19.353Z,79.50
2023-06-30T05:13:19.305Z,79.31
2023-06-30T05:14:19.251Z,79.31
2023-06-30T05:15:19.201Z,79.60
2023-06-30T05:16:19.238Z,79.60
2023-06-30T05:17:19.250Z,79.41
2023-06-30T05:18:19.080Z,79.41
2023-06-30T05:19:19.009Z,79.41
2023-06-30T05:20:18.960Z,79.50
2023-06-30T05:21:18.907Z,79.50
2023-06-30T05:22:18.860Z,79.50
2023-06-30T05:23:18.818Z,79.60
2023-06-30T05:24:18.771Z,79.50
2023-06-30T05:25:18.717Z,79.22
2023-06-30T05:26:18.678Z,79.50
2023-06-30T05:27:18.632Z,79.50
2023-06-30T05:28:18.570Z,79.50
2023-06-30T05:29:18.532Z,79.31
2023-06-30T05:30:18.476Z,79.22
2023-06-30T05:31:18.446Z,79.41
2023-06-30T05:32:18.392Z,79.31
2023-06-30T05:33:18.335Z,79.41
2023-06-30T05:34:18.280Z,79.50
2023-06-30T05:35:18.228Z,79.31
2023-06-30T05:36:18.181Z,79.50
2023-06-30T05:37:18.135Z,79.41
2023-06-30T05:38:18.080Z,79.50
2023-06-30T05:39:18.029Z,79.31
2023-06-30T05:40:17.985Z,79.31
2023-06-30T05:41:17.945Z,79.41
2023-06-30T05:42:28.982Z,79.22
2023-06-30T05:43:17.835Z,79.50
2023-06-30T05:44:17.860Z,79.31
2023-06-30T05:45:19.749Z,79.41
2023-06-30T05:46:17.725Z,79.50
2023-06-30T05:47:17.651Z,79.41
2023-06-30T05:48:17.600Z,79.31
2023-06-30T05:49:17.557Z,79.50
2023-06-30T05:50:17.502Z,79.31
2023-06-30T05:51:17.451Z,79.70
2023-06-30T05:52:17.404Z,79.31
2023-06-30T05:53:17.356Z,79.50
2023-06-30T05:54:17.308Z,79.41
2023-06-30T05:55:17.260Z,79.70
2023-06-30T05:56:17.211Z,79.41
2023-06-30T05:57:17.174Z,79.70
2023-06-30T05:58:17.120Z,79.41
2023-06-30T05:59:17.070Z,79.41
2023-06-30T06:00:17.016Z,79.60
2023-06-30T06:01:16.967Z,79.89
2023-06-30T06:02:16.973Z,79.89
2023-06-30T06:03:17.109Z,79.80
2023-06-30T06:04:17.009Z,79.60
2023-06-30T06:05:16.817Z,79.60
2023-06-30T06:06:16.724Z,79.99
2023-06-30T06:07:16.738Z,79.99
2023-06-30T06:08:16.633Z,79.99
2023-06-30T06:09:16.579Z,79.99
2023-06-30T06:10:16.529Z,79.80
2023-06-30T06:11:16.477Z,79.89
2023-06-30T06:12:16.436Z,79.89
2023-06-30T06:13:16.413Z,79.99
2023-06-30T06:14:16.354Z,79.70
2023-06-30T06:15:16.314Z,79.70
2023-06-30T06:16:16.338Z,79.70
2023-06-30T06:17:16.201Z,79.70
2023-06-30T06:18:16.142Z,79.60
2023-06-30T06:19:16.084Z,79.60
2023-06-30T06:20:16.048Z,79.60
2023-06-30T06:21:15.999Z,79.89
2023-06-30T06:22:15.966Z,79.80
2023-06-30T06:23:15.903Z,79.70
2023-06-30T06:24:15.849Z,79.70
2023-06-30T06:25:15.811Z,80.08
2023-06-30T06:26:15.755Z,79.99
2023-06-30T06:27:15.698Z,79.60
2023-06-30T06:28:15.657Z,79.80
2023-06-30T06:29:15.676Z,79.99
2023-06-30T06:30:15.562Z,79.99
2023-06-30T06:31:15.549Z,80.08
2023-06-30T06:32:15.462Z,79.89
2023-06-30T06:33:15.430Z,80.18
2023-06-30T06:34:15.366Z,79.41
2023-06-30T06:35:15.330Z,79.99
2023-06-30T06:36:15.267Z,79.80
2023-06-30T06:37:15.216Z,79.80
2023-06-30T06:38:15.192Z,80.28
2023-06-30T06:39:15.123Z,80.47
2023-06-30T06:40:15.084Z,80.18
2023-06-30T06:41:15.024Z,80.18
2023-06-30T06:42:14.973Z,80.28
2023-06-30T06:43:14.925Z,80.08
2023-06-30T06:44:14.876Z,80.18
2023-06-30T06:45:14.831Z,80.18
2023-06-30T06:46:14.833Z,80.47
2023-06-30T06:47:14.762Z,79.89
2023-06-30T06:48:14.686Z,79.80
2023-06-30T06:49:14.639Z,79.99
2023-06-30T06:50:14.587Z,79.89
2023-06-30T06:51:14.541Z,79.80
2023-06-30T06:52:14.491Z,80.18
2023-06-30T06:53:14.446Z,79.89
2023-06-30T06:54:14.393Z,79.89
2023-06-30T06:55:29.301Z,79.99
2023-06-30T06:56:14.306Z,79.99
2023-06-30T06:57:14.250Z,79.89
2023-06-30T06:58:14.199Z,79.89
2023-06-30T06:59:14.159Z,79.89
2023-06-30T07:00:14.105Z,79.70
2023-06-30T07:01:14.112Z,79.99
2023-06-30T07:02:14.119Z,79.70
2023-06-30T07:03:14.005Z,79.60
2023-06-30T07:04:14.010Z,79.70
2023-06-30T07:05:13.904Z,79.80
2023-06-30T07:06:13.807Z,79.80
2023-06-30T07:07:13.787Z,79.89
2023-06-30T07:08:13.710Z,80.08
2023-06-30T07:09:13.663Z,80.86
2023-06-30T07:10:13.612Z,80.28
2023-06-30T07:11:13.570Z,80.66
2023-06-30T07:12:13.512Z,80.57
2023-06-30T07:13:13.467Z,80.18
2023-06-30T07:14:13.418Z,80.08
2023-06-30T07:15:13.375Z,80.28
2023-06-30T07:16:13.366Z,80.18
2023-06-30T07:17:13.276Z,80.28
2023-06-30T07:18:13.339Z,80.28
2023-06-30T07:19:13.179Z,80.18
2023-06-30T07:20:13.143Z,80.18
2023-06-30T07:21:13.087Z,79.99
2023-06-30T07:22:13.023Z,79.99
2023-06-30T07:23:12.982Z,79.89
2023-06-30T07:24:12.932Z,80.66
2023-06-30T07:25:12.884Z,80.08
2023-06-30T07:26:12.830Z,80.76
2023-06-30T07:27:12.789Z,80.57
2023-06-30T07:28:12.741Z,80.28
2023-06-30T07:29:12.690Z,80.38
2023-06-30T07:30:12.640Z,80.66
2023-06-30T07:31:12.607Z,80.38
2023-06-30T07:32:19.266Z,80.28
2023-06-30T07:33:12.494Z,80.66
2023-06-30T07:34:12.502Z,80.38
2023-06-30T07:35:12.394Z,80.66
2023-06-30T07:36:12.355Z,80.57
2023-06-30T07:37:12.297Z,80.38
2023-06-30T07:38:12.248Z,80.66
2023-06-30T07:39:12.206Z,80.47
2023-06-30T07:40:17.133Z,80.57
2023-06-30T07:41:12.129Z,80.76
2023-06-30T07:42:12.056Z,80.76
2023-06-30T07:43:12.006Z,81.05
2023-06-30T07:44:11.960Z,80.95
2023-06-30T07:45:11.909Z,80.47
2023-06-30T07:46:11.905Z,80.47
2023-06-30T07:47:11.810Z,80.47
2023-06-30T07:48:12.410Z,80.38
2023-06-30T07:49:11.715Z,80.47
2023-06-30T07:50:11.686Z,80.86
2023-06-30T07:51:11.618Z,81.05
2023-06-30T07:52:11.574Z,81.05
2023-06-30T07:53:11.525Z,81.05
2023-06-30T07:54:11.468Z,80.95
2023-06-30T07:55:11.442Z,80.86
2023-06-30T07:56:11.380Z,80.86
2023-06-30T07:57:11.326Z,80.76
2023-06-30T07:58:11.283Z,80.66
2023-06-30T07:59:11.235Z,80.57
2023-06-30T08:00:11.185Z,80.47
2023-06-30T08:01:11.139Z,80.47
2023-06-30T08:02:11.097Z,80.66
2023-06-30T08:03:11.171Z,80.66
2023-06-30T08:04:11.239Z,80.57
2023-06-30T08:05:11.060Z,80.66
2023-06-30T08:06:11.183Z,80.66
2023-06-30T08:07:10.864Z,80.86
2023-06-30T08:08:10.791Z,80.38
2023-06-30T08:09:10.748Z,80.47
2023-06-30T08:10:10.690Z,80.57
2023-06-30T08:11:10.647Z,80.76
2023-06-30T08:12:10.593Z,81.53
2023-06-30T08:13:10.547Z,81.34
2023-06-30T08:14:10.502Z,81.24
2023-06-30T08:15:10.467Z,81.05
2023-06-30T08:16:10.496Z,81.24
2023-06-30T08:17:53.929Z,81.34
2023-06-30T08:18:10.986Z,81.24
2023-06-30T08:19:22.472Z,81.24
2023-06-30T08:20:10.332Z,81.05
2023-06-30T08:21:10.164Z,81.05
2023-06-30T08:22:10.155Z,81.24
2023-06-30T08:23:10.061Z,81.05
2023-06-30T08:24:10.027Z,81.24
2023-06-30T08:25:09.962Z,81.05
2023-06-30T08:26:09.921Z,81.44
2023-06-30T08:27:09.868Z,81.34
2023-06-30T08:28:09.816Z,81.44
2023-06-30T08:29:09.763Z,81.73
2023-06-30T08:30:09.716Z,81.63
2023-06-30T08:31:09.704Z,81.73
2023-06-30T08:32:09.631Z,81.92
2023-06-30T08:33:09.605Z,81.73
2023-06-30T08:34:09.525Z,81.63
2023-06-30T08:35:09.473Z,82.21
2023-06-30T08:36:09.437Z,82.60
2023-06-30T08:37:09.380Z,82.89
2023-06-30T08:38:09.339Z,82.89
2023-06-30T08:39:09.279Z,82.69
2023-06-30T08:40:09.236Z,82.79
2023-06-30T08:41:09.184Z,82.79
2023-06-30T08:42:09.139Z,82.98
2023-06-30T08:43:09.088Z,82.79
2023-06-30T08:44:09.043Z,82.69
2023-06-30T08:45:09.012Z,82.89
2023-06-30T08:46:08.977Z,82.69
2023-06-30T08:47:09.784Z,82.79
2023-06-30T08:48:15.788Z,83.18
2023-06-30T08:49:08.792Z,82.69
2023-06-30T08:50:08.757Z,83.56
2023-06-30T08:51:08.700Z,83.66
2023-06-30T08:52:08.653Z,83.75
2023-06-30T08:53:08.617Z,83.95
2023-06-30T08:54:08.591Z,84.05
2023-06-30T08:55:08.516Z,83.27
2023-06-30T08:56:08.455Z,83.85
2023-06-30T08:57:08.410Z,83.66
2023-06-30T08:58:20.861Z,83.56
2023-06-30T08:59:08.311Z,83.66
2023-06-30T09:00:08.266Z,83.85
2023-06-30T09:01:08.246Z,83.75
2023-06-30T09:02:08.271Z,83.75
2023-06-30T09:03:08.175Z,83.95
2023-06-30T09:04:08.256Z,83.56
2023-06-30T09:05:08.056Z,83.75
2023-06-30T09:06:07.972Z,83.66
2023-06-30T09:07:07.958Z,83.56
2023-06-30T09:08:07.873Z,82.79
2023-06-30T09:09:07.824Z,83.18
2023-06-30T09:10:07.798Z,83.47
2023-06-30T09:11:07.732Z,83.85
2023-06-30T09:12:07.685Z,83.66
2023-06-30T09:13:07.634Z,83.95
2023-06-30T09:14:07.593Z,83.75
2023-06-30T09:15:07.537Z,83.85
2023-06-30T09:16:07.542Z,83.66
2023-06-30T09:17:07.476Z,83.27
2023-06-30T09:18:07.412Z,83.47
2023-06-30T09:19:07.343Z,83.95
2023-06-30T09:20:07.369Z,83.85
2023-06-30T09:21:07.240Z,83.37
2023-06-30T09:22:51.077Z,83.37
2023-06-30T09:23:07.138Z,83.47
2023-06-30T09:24:07.097Z,83.85
2023-06-30T09:25:07.053Z,84.24
2023-06-30T09:26:07.025Z,84.53
2023-06-30T09:27:06.945Z,84.53
2023-06-30T09:28:06.918Z,84.53
2023-06-30T09:29:06.865Z,84.33
2023-06-30T09:30:06.819Z,84.82
2023-06-30T09:31:06.754Z,84.72
2023-06-30T09:32:06.754Z,84.82
2023-06-30T09:33:06.750Z,84.53
2023-06-30T09:34:06.613Z,84.63
2023-06-30T09:35:06.585Z,84.53
2023-06-30T09:36:06.518Z,84.53
2023-06-30T09:37:06.467Z,84.43
2023-06-30T09:38:06.420Z,84.53
2023-06-30T09:39:06.377Z,84.72
2023-06-30T09:40:06.317Z,84.43
2023-06-30T09:41:06.277Z,84.33
2023-06-30T09:42:06.229Z,84.33
2023-06-30T09:43:06.189Z,84.43
2023-06-30T09:44:06.123Z,84.63
2023-06-30T09:45:06.070Z,84.91
2023-06-30T09:46:06.054Z,84.91
2023-06-30T09:47:05.984Z,84.72
2023-06-30T09:48:07.851Z,85.01
2023-06-30T09:49:05.949Z,85.01
2023-06-30T09:50:06.012Z,85.11
2023-06-30T09:51:05.784Z,85.88
2023-06-30T09:52:05.740Z,85.01
2023-06-30T09:53:05.685Z,84.91
2023-06-30T09:54:05.636Z,84.91
2023-06-30T09:55:05.587Z,85.01
2023-06-30T09:56:05.544Z,85.21
2023-06-30T09:57:05.493Z,84.91
2023-06-30T09:58:05.451Z,85.59
2023-06-30T09:59:05.388Z,85.30
2023-06-30T10:00:05.356Z,85.49
2023-06-30T10:01:05.331Z,84.91
2023-06-30T10:02:05.251Z,85.11
2023-06-30T10:03:05.318Z,85.11
2023-06-30T10:04:05.158Z,85.11
2023-06-30T10:05:05.097Z,85.11
2023-06-30T10:06:05.056Z,84.91
2023-06-30T10:07:05.032Z,84.63
2023-06-30T10:08:04.962Z,84.63
2023-06-30T10:09:04.919Z,84.91
2023-06-30T10:10:04.864Z,85.30
2023-06-30T10:11:04.817Z,84.91
2023-06-30T10:12:04.761Z,85.11
2023-06-30T10:13:04.726Z,84.91
2023-06-30T10:14:04.681Z,85.11
2023-06-30T10:15:04.612Z,85.30
2023-06-30T10:16:04.570Z,85.30
2023-06-30T10:17:04.590Z,85.21
2023-06-30T10:18:04.559Z,85.11
2023-06-30T10:19:04.433Z,84.82
2023-06-30T10:20:04.680Z,85.21
2023-06-30T10:21:04.323Z,85.01
2023-06-30T10:22:04.281Z,84.72
2023-06-30T10:23:04.224Z,84.91
2023-06-30T10:24:04.192Z,84.91
2023-06-30T10:25:04.131Z,84.91
2023-06-30T10:26:04.111Z,84.91
2023-06-30T10:27:04.029Z,85.11
2023-06-30T10:28:03.987Z,84.72
2023-06-30T10:29:03.951Z,84.82
2023-06-30T10:30:03.944Z,84.82
2023-06-30T10:31:03.846Z,85.11
2023-06-30T10:32:03.801Z,85.01
2023-06-30T10:33:03.978Z,85.21
2023-06-30T10:34:03.748Z,84.91
2023-06-30T10:35:04.315Z,84.63
2023-06-30T10:36:03.596Z,84.91
2023-06-30T10:37:03.550Z,85.01
2023-06-30T10:38:03.496Z,84.72
2023-06-30T10:39:03.452Z,84.91
2023-06-30T10:40:03.570Z,84.91
2023-06-30T10:41:03.356Z,84.72
2023-06-30T10:42:03.309Z,84.72
2023-06-30T10:43:03.256Z,84.91
2023-06-30T10:44:03.208Z,84.63
2023-06-30T10:45:03.170Z,84.82
2023-06-30T10:46:03.122Z,85.11
2023-06-30T10:47:03.112Z,85.11
2023-06-30T10:48:03.064Z,84.91
2023-06-30T10:49:02.962Z,85.40
2023-06-30T10:50:02.917Z,85.21
2023-06-30T10:51:02.865Z,85.49
2023-06-30T10:52:04.852Z,85.01
2023-06-30T10:53:03.763Z,85.49
2023-06-30T10:54:02.721Z,85.21
2023-06-30T10:55:02.746Z,84.91
2023-06-30T10:56:02.626Z,85.21
2023-06-30T10:57:02.582Z,85.30
2023-06-30T10:58:03.396Z,85.30
2023-06-30T10:59:02.481Z,85.11
2023-06-30T11:00:02.434Z,85.30
2023-06-30T11:01:02.381Z,85.11
2023-06-30T11:02:02.346Z,85.21
2023-06-30T11:03:02.431Z,85.30
2023-06-30T11:04:04.610Z,85.49
2023-06-30T11:05:02.383Z,85.40
2023-06-30T11:06:02.145Z,85.21
2023-06-30T11:07:02.108Z,85.59
2023-06-30T11:08:02.045Z,85.59
2023-06-30T11:09:02.034Z,85.59
2023-06-30T11:10:03.776Z,85.49
2023-06-30T11:11:01.894Z,85.78
2023-06-30T11:12:01.855Z,85.88
2023-06-30T11:13:01.805Z,85.98
2023-06-30T11:14:01.746Z,85.78
2023-06-30T11:15:01.707Z,85.59
2023-06-30T11:16:01.654Z,85.69
2023-06-30T11:17:01.601Z,85.40
2023-06-30T11:18:01.600Z,85.78
2023-06-30T11:19:01.648Z,85.49
2023-06-30T11:20:01.457Z,85.78
2023-06-30T11:21:01.426Z,86.36
2023-06-30T11:22:01.978Z,86.27
2023-06-30T11:23:01.320Z,86.17
2023-06-30T11:24:01.264Z,85.88
2023-06-30T11:25:01.214Z,85.78
2023-06-30T11:26:01.202Z,85.98
2023-06-30T11:27:01.117Z,86.17
2023-06-30T11:28:01.092Z,86.17
2023-06-30T11:29:01.039Z,86.27
2023-06-30T11:30:01.008Z,86.46
2023-06-30T11:31:00.946Z,86.36
2023-06-30T11:32:00.869Z,86.65
2023-06-30T11:33:00.845Z,86.46
2023-06-30T11:34:07.336Z,87.04
2023-06-30T11:35:00.742Z,86.27
2023-06-30T11:36:07.379Z,86.46
2023-06-30T11:37:00.639Z,86.85
2023-06-30T11:38:00.598Z,86.65
2023-06-30T11:39:00.542Z,87.13
2023-06-30T11:40:00.497Z,86.94
2023-06-30T11:41:00.444Z,87.04
2023-06-30T11:42:00.393Z,86.17
2023-06-30T11:43:00.350Z,86.75
2023-06-30T11:44:00.311Z,86.36
2023-06-30T11:45:00.258Z,86.36
2023-06-30T11:46:01.667Z,86.17
2023-06-30T11:47:00.188Z,87.04
2023-06-30T11:48:00.177Z,87.04
2023-06-30T11:49:00.055Z,87.43
2023-06-30T11:50:00.018Z,87.71
2023-06-30T11:50:59.953Z,87.04
2023-06-30T11:52:00.361Z,87.23
2023-06-30T11:52:59.853Z,87.13
2023-06-30T11:53:59.804Z,86.75
2023-06-30T11:54:59.757Z,86.75
2023-06-30T11:55:59.731Z,86.85
2023-06-30T11:56:59.671Z,86.94
2023-06-30T11:57:59.606Z,87.23
2023-06-30T11:58:59.572Z,87.13
2023-06-30T11:59:59.531Z,87.91
2023-06-30T12:00:59.473Z,87.62
2023-06-30T12:01:59.435Z,88.39
2023-06-30T12:02:59.636Z,88.01
2023-06-30T12:03:59.375Z,87.91
2023-06-30T12:04:59.383Z,88.29
2023-06-30T12:05:59.258Z,88.10
2023-06-30T12:06:59.198Z,87.91
2023-06-30T12:07:59.129Z,88.29
2023-06-30T12:08:59.077Z,87.71
2023-06-30T12:09:59.024Z,88.10
2023-06-30T12:10:59.008Z,88.29
2023-06-30T12:11:58.931Z,88.10
2023-06-30T12:12:58.887Z,88.39
2023-06-30T12:13:58.835Z,88.78
2023-06-30T12:14:58.811Z,87.91
2023-06-30T12:15:58.831Z,88.10
2023-06-30T12:16:58.688Z,88.20
2023-06-30T12:17:58.716Z,88.39
2023-06-30T12:18:58.593Z,88.20
2023-06-30T12:19:58.537Z,88.49
2023-06-30T12:20:58.501Z,88.68
2023-06-30T12:21:58.471Z,88.68
2023-06-30T12:22:58.420Z,88.01
2023-06-30T12:23:58.354Z,88.29
2023-06-30T12:24:58.306Z,87.91
2023-06-30T12:25:58.256Z,88.68
2023-06-30T12:26:58.206Z,88.39
2023-06-30T12:27:58.159Z,88.59
2023-06-30T12:28:58.108Z,88.59
2023-06-30T12:29:58.055Z,88.49
2023-06-30T12:30:58.012Z,88.97
2023-06-30T12:31:57.984Z,89.17
2023-06-30T12:32:57.953Z,88.39
2023-06-30T12:33:57.917Z,88.59
2023-06-30T12:34:57.826Z,88.49
2023-06-30T12:35:57.762Z,88.49
2023-06-30T12:36:57.723Z,88.68
2023-06-30T12:37:57.767Z,88.39
2023-06-30T12:38:57.620Z,88.49
2023-06-30T12:39:57.599Z,88.78
2023-06-30T12:40:57.547Z,88.20
2023-06-30T12:41:57.501Z,88.87
2023-06-30T12:42:57.451Z,88.01
2023-06-30T12:43:57.710Z,88.20
2023-06-30T12:44:57.347Z,88.10
2023-06-30T12:45:57.324Z,87.62
2023-06-30T12:46:57.237Z,88.10
2023-06-30T12:47:57.292Z,87.91
2023-06-30T12:48:57.138Z,88.10
2023-06-30T12:49:57.086Z,88.29
2023-06-30T12:50:57.099Z,88.01
2023-06-30T12:51:56.994Z,88.20